Time;durP1;ratioP1;P1;durP2;ratioP2;P2;SDS_P1;SDS_P2;PMS_P1;PMS_P2;Temp;Humidity;BMP_temperature;BMP_pressure;BME280_temperature;BME280_humidity;BME280_pressure;Samples;Min_cycle;Max_cycle;Signal;HPM_P1;HPM_P2
2023/06/09 05:47:12;;;;;;;;;;;;;;;23.58;45.41;100223.71;109484;1275;22507;-45
2023/06/09 05:49:40;;;;;;;;;;;;;;;23.60;44.13;100224.84;108520;1281;23452;-45
2023/06/09 05:52:08;;;;;;;;;;;;;;;23.57;44.47;100225.71;109387;1282;22523;-48
2023/06/09 05:54:36;;;;;;;;;;;;;;;23.56;44.65;100228.79;109376;1275;22981;-46
2023/06/09 05:57:05;;;;;;;;;;;;;;;23.59;44.73;100226.31;108544;1275;22603;-43
2023/06/09 05:59:34;;;;;;;;;;;;;;;23.61;44.95;100229.77;108886;1276;22553;-45
2023/06/09 06:02:12;;;;;;;;;;;;;;;23.64;45.14;100223.06;108754;1268;23217;-48
2023/06/09 06:04:40;;;;;;;;;;;;;;;23.67;45.33;100226.82;108495;1283;25325;-48
2023/06/09 06:07:09;;;;;;;;;;;;;;;23.71;45.58;100227.30;108315;1284;25205;-47
2023/06/09 06:09:37;;;;;;;;;;;;;;;23.78;45.65;100227.28;109111;1279;22495;-48
2023/06/09 06:12:05;;;;;;;;;;;;;;;23.85;45.31;100232.02;109803;1280;22433;-48
2023/06/09 06:14:33;;;;;;;;;;;;;;;23.93;44.44;100229.09;109750;1275;22443;-47
2023/06/09 06:17:00;;;;;;;;;;;;;;;23.99;43.36;100230.19;109234;1275;22506;-45
2023/06/09 06:19:28;;;;;;;;;;;;;;;24.02;42.86;100230.17;107637;1281;22531;-44
2023/06/09 06:21:55;;;;;;;;;;;;;;;24.09;42.66;100226.94;108293;1283;22641;-45
2023/06/09 06:24:22;;;;;;;;;;;;;;;24.24;42.59;100232.52;108793;1275;22474;-44
2023/06/09 06:26:50;;;;;;;;;;;;;;;24.41;42.53;100224.73;109748;1281;23017;-45
2023/06/09 06:29:18;;;;;;;;;;;;;;;24.57;42.79;100226.14;108545;1283;24404;-44
2023/06/09 06:31:48;;;;;;;;;;;;;;;24.70;42.34;100221.27;107253;1278;22552;-44
2023/06/09 06:34:16;;;;;;;;;;;;;;;24.78;42.29;100222.55;108173;1283;22534;-45
2023/06/09 06:36:43;;;;;;;;;;;;;;;24.83;42.25;100220.63;107650;1278;24411;-45
2023/06/09 06:39:12;;;;;;;;;;;;;;;24.88;41.21;100217.33;108711;1277;22523;-45
2023/06/09 06:41:40;;;;;;;;;;;;;;;24.92;41.12;100214.73;108902;1278;23670;-46
2023/06/09 06:44:07;;;;;;;;;;;;;;;25.07;40.89;100211.91;109175;1283;24231;-46
2023/06/09 06:46:35;;;;;;;;;;;;;;;25.21;39.59;100217.47;109771;1281;23129;-44
2023/06/09 06:49:03;;;;;;;;;;;;;;;25.27;39.02;100217.62;109215;1281;22605;-44
2023/06/09 06:51:30;;;;;;;;;;;;;;;25.27;39.12;100217.27;108942;1278;22584;-45
2023/06/09 06:53:58;;;;;;;;;;;;;;;25.25;38.66;100220.23;109457;1282;23183;-45
2023/06/09 06:56:25;;;;;;;;;;;;;;;25.25;38.80;100218.29;106890;1282;22528;-45
2023/06/09 06:58:53;;;;;;;;;;;;;;;25.27;38.71;100214.59;107937;1281;23769;-45
2023/06/09 07:01:21;;;;;;;;;;;;;;;25.30;38.29;100215.71;109792;1281;22483;-45
2023/06/09 07:03:52;;;;;;;;;;;;;;;25.32;37.85;100216.05;109821;1276;23252;-45
2023/06/09 07:06:19;;;;;;;;;;;;;;;25.40;37.53;100217.73;109727;1278;23278;-46
2023/06/09 07:08:47;;;;;;;;;;;;;;;25.52;37.32;100211.94;109734;1282;22889;-46
2023/06/09 07:11:14;;;;;;;;;;;;;;;25.68;36.87;100214.34;109670;1281;22445;-46
2023/06/09 07:13:42;;;;;;;;;;;;;;;25.81;37.03;100211.20;109696;1282;23419;-47
2023/06/09 07:16:09;;;;;;;;;;;;;;;25.92;37.44;100212.27;109807;1281;22433;-43
2023/06/09 07:18:36;;;;;;;;;;;;;;;26.05;37.29;100212.51;109753;1282;23129;-45
2023/06/09 07:21:04;;;;;;;;;;;;;;;26.15;36.42;100216.33;109675;1281;23614;-43
2023/06/09 07:23:32;;;;;;;;;;;;;;;26.24;36.26;100209.27;109521;1281;22463;-43
2023/06/09 07:25:59;;;;;;;;;;;;;;;26.33;36.13;100208.14;109192;1275;23339;-42
2023/06/09 07:28:27;;;;;;;;;;;;;;;26.40;35.78;100209.83;109271;1278;22501;-44
2023/06/09 07:30:55;;;;;;;;;;;;;;;26.49;35.39;100209.98;109614;1280;22974;-41
2023/06/09 07:33:22;;;;;;;;;;;;;;;26.56;35.22;100208.60;109697;1277;23031;-43
2023/06/09 07:35:52;;;;;;;;;;;;;;;26.62;34.90;100208.55;109666;1275;22419;-42
2023/06/09 07:38:21;;;;;;;;;;;;;;;26.70;34.56;100206.58;108915;1282;25383;-48
2023/06/09 07:40:50;;;;;;;;;;;;;;;26.76;34.21;100203.46;108811;1276;22506;-47
2023/06/09 07:43:40;;;;;;;;;;;;;;;26.84;34.35;100201.89;108640;1277;22516;-43
2023/06/09 07:46:11;;;;;;;;;;;;;;;26.91;34.22;100201.49;108714;1282;22608;-42
2023/06/09 07:48:42;;;;;;;;;;;;;;;26.96;34.06;100198.54;108988;1281;23632;-46
2023/06/09 07:51:13;;;;;;;;;;;;;;;26.96;33.24;100201.35;109466;1274;23104;-46
2023/06/09 07:53:41;;;;;;;;;;;;;;;27.00;33.33;100200.70;109579;1282;22451;-43
2023/06/09 07:56:09;;;;;;;;;;;;;;;27.05;33.41;100200.20;109775;1276;23289;-43
2023/06/09 07:58:37;;;;;;;;;;;;;;;27.11;33.74;100204.14;109323;1277;25397;-45
2023/06/09 08:01:04;;;;;;;;;;;;;;;27.18;33.90;100201.66;109748;1275;22978;-45
2023/06/09 08:03:34;;;;;;;;;;;;;;;27.27;32.56;100200.82;108981;1275;22491;-46
2023/06/09 08:06:04;;;;;;;;;;;;;;;27.36;32.45;100197.36;108162;1276;22495;-42
2023/06/09 08:08:31;;;;;;;;;;;;;;;27.45;31.75;100196.52;109684;1276;22444;-43
2023/06/09 08:10:59;;;;;;;;;;;;;;;27.48;31.52;100198.42;109817;1276;22444;-42
2023/06/09 08:13:28;;;;;;;;;;;;;;;27.51;32.09;100206.10;109683;1276;22473;-42
2023/06/09 08:15:56;;;;;;;;;;;;;;;27.54;32.13;100206.38;109790;1275;23255;-42
2023/06/09 08:18:23;;;;;;;;;;;;;;;27.60;32.22;100208.11;109717;1278;23188;-42
2023/06/09 08:20:51;;;;;;;;;;;;;;;27.69;32.46;100210.53;109678;1276;22419;-42
2023/06/09 08:23:21;;;;;;;;;;;;;;;27.76;32.12;100208.40;109719;1275;22420;-42
2023/06/09 08:25:49;;;;;;;;;;;;;;;27.78;31.59;100210.08;108831;1277;26484;-41
2023/06/09 08:28:17;;;;;;;;;;;;;;;27.84;31.64;100205.70;108708;1279;22715;-45
2023/06/09 08:30:44;;;;;;;;;;;;;;;27.88;31.12;100203.26;109301;1278;22520;-46
2023/06/09 08:33:12;;;;;;;;;;;;;;;27.89;31.67;100196.94;108697;1275;23529;-46
2023/06/09 08:35:40;;;;;;;;;;;;;;;27.91;31.80;100193.05;108115;1275;22612;-46
2023/06/09 08:38:08;;;;;;;;;;;;;;;27.87;31.57;100195.83;108557;1277;22618;-47
2023/06/09 08:40:35;;;;;;;;;;;;;;;27.75;31.56;100195.75;107883;1277;22524;-46
2023/06/09 08:43:03;;;;;;;;;;;;;;;27.70;31.54;100192.95;107917;1276;23672;-46
2023/06/09 08:45:31;;;;;;;;;;;;;;;27.71;31.62;100189.61;107717;1275;25205;-46
2023/06/09 08:47:59;;;;;;;;;;;;;;;27.72;31.96;100193.48;108668;1282;23201;-46
2023/06/09 08:50:30;;;;;;;;;;;;;;;27.79;31.92;100187.81;109203;1281;24212;-48
2023/06/09 08:52:57;;;;;;;;;;;;;;;27.84;32.48;100188.52;108754;1280;22575;-46
2023/06/09 08:55:25;;;;;;;;;;;;;;;27.84;31.99;100188.30;108820;1278;24196;-46
2023/06/09 08:57:52;;;;;;;;;;;;;;;27.77;32.07;100192.77;108045;1277;22503;-46
2023/06/09 09:00:20;;;;;;;;;;;;;;;27.74;31.85;100185.13;109477;1281;22494;-46
2023/06/09 09:02:47;;;;;;;;;;;;;;;27.79;31.48;100185.46;108240;1281;22506;-48
2023/06/09 09:05:15;;;;;;;;;;;;;;;27.87;31.52;100181.14;109453;1282;22472;-45
2023/06/09 09:07:45;;;;;;;;;;;;;;;27.96;31.72;100176.51;109113;1278;24436;-43
2023/06/09 09:10:12;;;;;;;;;;;;;;;28.04;31.65;100179.33;108845;1283;23309;-43
2023/06/09 09:12:49;;;;;;;;;;;;;;;28.14;31.33;100170.85;109728;1275;22412;-43
2023/06/09 09:15:17;;;;;;;;;;;;;;;28.28;30.59;100169.10;109447;1281;22495;-46
2023/06/09 09:17:45;;;;;;;;;;;;;;;28.45;30.85;100164.94;109543;1281;23334;-43
2023/06/09 09:20:14;;;;;;;;;;;;;;;28.66;30.48;100164.95;108628;1277;22514;-43
2023/06/09 09:22:43;;;;;;;;;;;;;;;28.76;29.84;100166.84;108715;1283;22515;-42
2023/06/09 09:25:19;;;;;;;;;;;;;;;28.73;29.60;100164.94;108387;1280;22513;-48
2023/06/09 09:28:02;;;;;;;;;;;;;;;28.63;29.34;100170.17;109444;1282;22511;-46
2023/06/09 09:30:36;;;;;;;;;;;;;;;28.61;29.58;100161.20;109535;1278;22787;-43
2023/06/09 09:33:07;;;;;;;;;;;;;;;28.69;29.47;100157.51;109456;1276;22516;-46
2023/06/09 09:35:37;;;;;;;;;;;;;;;28.81;29.43;100160.36;109609;1275;22472;-46
2023/06/09 09:38:05;;;;;;;;;;;;;;;28.91;29.51;100154.59;109611;1282;23205;-46
2023/06/09 09:40:33;;;;;;;;;;;;;;;29.05;29.22;100157.94;109454;1283;22466;-46
2023/06/09 09:43:01;;;;;;;;;;;;;;;29.16;28.73;100158.69;109609;1281;22453;-43
2023/06/09 09:45:31;;;;;;;;;;;;;;;29.27;28.76;100159.23;109597;1282;22456;-43
2023/06/09 09:48:18;;;;;;;;;;;;;;;29.37;28.18;100156.98;109489;1281;22895;-43
2023/06/09 09:50:46;;;;;;;;;;;;;;;29.51;28.18;100153.88;109565;1278;22425;-43
2023/06/09 09:53:14;;;;;;;;;;;;;;;29.65;27.67;100149.69;109504;1278;22473;-43
2023/06/09 09:55:42;;;;;;;;;;;;;;;29.64;27.88;100147.85;109564;1283;22454;-43
2023/06/09 09:58:09;;;;;;;;;;;;;;;29.55;27.86;100144.09;109533;1280;22438;-42
2023/06/09 10:00:37;;;;;;;;;;;;;;;29.43;28.30;100148.08;109738;1283;23042;-43
2023/06/09 10:03:23;;;;;;;;;;;;;;;29.35;27.91;100146.20;109037;1275;22535;-42
2023/06/09 10:05:50;;;;;;;;;;;;;;;29.33;28.20;100140.27;108645;1283;23518;-43
2023/06/09 10:08:26;;;;;;;;;;;;;;;29.35;28.03;100136.91;107012;1282;22510;-43
2023/06/09 10:10:56;;;;;;;;;;;;;;;29.44;28.25;100132.38;107167;1283;24218;-43
2023/06/09 10:13:26;;;;;;;;;;;;;;;29.57;28.13;100129.34;107255;1283;23346;-44
2023/06/09 10:15:54;;;;;;;;;;;;;;;29.66;27.43;100123.73;107552;1275;22518;-42
2023/06/09 10:18:21;;;;;;;;;;;;;;;29.65;27.42;100120.61;107405;1281;25327;-43
2023/06/09 10:20:52;;;;;;;;;;;;;;;29.66;27.84;100121.97;107540;1283;24307;-43
2023/06/09 10:23:19;;;;;;;;;;;;;;;29.65;28.23;100116.70;109492;1275;22472;-43
2023/06/09 10:25:50;;;;;;;;;;;;;;;29.68;27.80;100117.16;109517;1278;24178;-44
2023/06/09 10:28:18;;;;;;;;;;;;;;;29.69;27.55;100119.02;109643;1276;23062;-51
2023/06/09 10:30:46;;;;;;;;;;;;;;;29.76;27.45;100117.77;109803;1282;22438;-44
2023/06/09 10:33:14;;;;;;;;;;;;;;;29.87;27.08;100109.77;107822;1278;24538;-42
2023/06/09 10:35:41;;;;;;;;;;;;;;;30.02;26.83;100107.98;106694;1283;22525;-43
2023/06/09 10:38:30;;;;;;;;;;;;;;;30.14;26.87;100110.44;109248;1282;22510;-43
2023/06/09 10:41:17;;;;;;;;;;;;;;;30.31;26.57;100112.59;108662;1283;22587;-43
2023/06/09 10:43:58;;;;;;;;;;;;;;;30.47;26.51;100112.84;109111;1282;22473;-47
2023/06/09 10:46:44;;;;;;;;;;;;;;;30.54;26.39;100105.02;108317;1281;22527;-45
2023/06/09 10:49:25;;;;;;;;;;;;;;;30.55;26.43;100103.70;109888;1277;22444;-43
2023/06/09 10:51:52;;;;;;;;;;;;;;;30.72;26.14;100095.94;109843;1283;22458;-47
2023/06/09 10:54:21;;;;;;;;;;;;;;;30.85;26.35;100091.41;107194;1283;22523;-45
2023/06/09 10:56:52;;;;;;;;;;;;;;;30.98;26.16;100092.18;107983;1281;22567;-46
2023/06/09 10:59:26;;;;;;;;;;;;;;;31.21;25.61;100086.93;107109;1283;25560;-46
2023/06/09 11:02:03;;;;;;;;;;;;;;;31.31;25.24;100085.73;107310;1281;24175;-47
2023/06/09 11:04:37;;;;;;;;;;;;;;;31.30;25.40;100085.25;107258;1283;22527;-49
2023/06/09 11:07:09;;;;;;;;;;;;;;;31.22;25.60;100080.73;106900;1276;24218;-46
2023/06/09 11:09:37;;;;;;;;;;;;;;;31.06;25.72;100078.02;107008;1282;22556;-46
2023/06/09 11:12:05;;;;;;;;;;;;;;;30.80;26.24;100080.64;108102;1275;25302;-46
2023/06/09 11:14:45;;;;;;;;;;;;;;;30.57;26.46;100078.53;108956;1283;22528;-46
2023/06/09 11:17:13;;;;;;;;;;;;;;;30.43;26.18;100073.90;107743;1276;22551;-47
2023/06/09 11:19:41;;;;;;;;;;;;;;;30.44;26.12;100067.58;107869;1280;24342;-46
2023/06/09 11:22:09;;;;;;;;;;;;;;;30.49;26.36;100067.50;107663;1281;22515;-45
2023/06/09 11:24:46;;;;;;;;;;;;;;;30.52;26.61;100066.69;106791;1283;22515;-50
2023/06/09 11:27:17;;;;;;;;;;;;;;;30.58;26.76;100059.52;106772;1276;22535;-47
2023/06/09 11:30:04;;;;;;;;;;;;;;;30.69;27.04;100062.37;107282;1283;24204;-46
2023/06/09 11:32:51;;;;;;;;;;;;;;;30.70;26.85;100059.94;107920;1275;24204;-47
2023/06/09 11:35:28;;;;;;;;;;;;;;;30.69;26.84;100053.94;109465;1277;146424;-42
2023/06/09 11:37:56;;;;;;;;;;;;;;;30.71;26.36;100056.64;108107;1282;22537;-44
2023/06/09 11:40:27;;;;;;;;;;;;;;;30.59;26.57;100057.48;109839;1283;22427;-43
2023/06/09 11:42:55;;;;;;;;;;;;;;;30.36;26.28;100049.91;109443;1275;22484;-44
2023/06/09 11:45:23;;;;;;;;;;;;;;;30.26;26.12;100042.75;109285;1278;22562;-44
2023/06/09 11:47:56;;;;;;;;;;;;;;;30.25;26.28;100043.88;109265;1276;22954;-45
2023/06/09 11:50:24;;;;;;;;;;;;;;;30.31;26.42;100038.86;109818;1281;22422;-43
2023/06/09 11:53:02;;;;;;;;;;;;;;;30.43;25.86;100034.41;108012;1281;22526;-44
2023/06/09 11:55:29;;;;;;;;;;;;;;;30.57;26.10;100034.63;106728;1282;22687;-42
2023/06/09 11:57:57;;;;;;;;;;;;;;;30.66;26.01;100033.25;109147;1282;22495;-47
2023/06/09 12:00:25;;;;;;;;;;;;;;;30.71;25.65;100033.91;109760;1281;22414;-46
2023/06/09 12:02:53;;;;;;;;;;;;;;;30.65;25.63;100034.59;109677;1276;23193;-42
2023/06/09 12:05:21;;;;;;;;;;;;;;;30.48;25.22;100030.55;109212;1282;22854;-45
2023/06/09 12:07:49;;;;;;;;;;;;;;;30.33;25.93;100029.67;109664;1282;22511;-43
2023/06/09 12:10:17;;;;;;;;;;;;;;;30.31;26.02;100027.52;109838;1282;22450;-45
2023/06/09 12:12:45;;;;;;;;;;;;;;;30.35;26.38;100022.02;108746;1277;25274;-46
2023/06/09 12:15:13;;;;;;;;;;;;;;;30.31;26.50;100020.00;107008;1282;22506;-42
2023/06/09 12:17:40;;;;;;;;;;;;;;;30.27;26.63;100013.67;107307;1276;22532;-47
2023/06/09 12:20:27;;;;;;;;;;;;;;;30.28;26.75;100016.24;107901;1282;23073;-44
2023/06/09 12:22:58;;;;;;;;;;;;;;;30.26;26.76;100012.16;109811;1281;23211;-45
